sensor_id;sensor_type;location;lat;lon;timestamp;P1;durP1;ratioP1;P2;durP2;ratioP2
3589;SDS011;1809;48.470;9.226;2023-02-11T00:01:45;51.37;;;23.83;;
3589;SDS011;1809;48.470;9.226;2023-02-11T00:04:10;54.63;;;25.07;;
3589;SDS011;1809;48.470;9.226;2023-02-11T00:06:36;42.80;;;21.90;;
3589;SDS011;1809;48.470;9.226;2023-02-11T00:09:01;69.90;;;32.07;;
3589;SDS011;1809;48.470;9.226;2023-02-11T00:11:27;60.03;;;29.10;;
3589;SDS011;1809;48.470;9.226;2023-02-11T00:13:54;45.37;;;22.40;;
3589;SDS011;1809;48.470;9.226;2023-02-11T00:16:21;54.30;;;26.60;;
3589;SDS011;1809;48.470;9.226;2023-02-11T00:18:47;48.40;;;21.40;;
3589;SDS011;1809;48.470;9.226;2023-02-11T00:21:13;43.00;;;20.43;;
3589;SDS011;1809;48.470;9.226;2023-02-11T00:23:41;42.67;;;20.10;;
3589;SDS011;1809;48.470;9.226;2023-02-11T00:26:20;48.07;;;22.00;;
3589;SDS011;1809;48.470;9.226;2023-02-11T00:28:48;47.43;;;21.00;;
3589;SDS011;1809;48.470;9.226;2023-02-11T00:31:14;37.53;;;20.57;;
3589;SDS011;1809;48.470;9.226;2023-02-11T00:33:41;39.30;;;19.40;;
3589;SDS011;1809;48.470;9.226;2023-02-11T00:36:09;38.07;;;19.07;;
3589;SDS011;1809;48.470;9.226;2023-02-11T00:38:37;42.67;;;20.80;;
3589;SDS011;1809;48.470;9.226;2023-02-11T00:41:02;43.97;;;20.20;;
3589;SDS011;1809;48.470;9.226;2023-02-11T00:43:28;37.83;;;19.93;;
3589;SDS011;1809;48.470;9.226;2023-02-11T00:45:53;47.57;;;20.83;;
3589;SDS011;1809;48.470;9.226;2023-02-11T00:48:19;45.50;;;21.33;;
3589;SDS011;1809;48.470;9.226;2023-02-11T00:50:44;45.13;;;21.63;;
3589;SDS011;1809;48.470;9.226;2023-02-11T00:53:09;36.30;;;18.77;;
3589;SDS011;1809;48.470;9.226;2023-02-11T00:55:35;38.87;;;19.10;;
3589;SDS011;1809;48.470;9.226;2023-02-11T00:58:00;40.37;;;19.07;;
3589;SDS011;1809;48.470;9.226;2023-02-11T01:00:26;34.40;;;17.63;;
3589;SDS011;1809;48.470;9.226;2023-02-11T01:02:52;39.90;;;18.93;;
3589;SDS011;1809;48.470;9.226;2023-02-11T01:05:17;39.00;;;18.03;;
3589;SDS011;1809;48.470;9.226;2023-02-11T01:07:43;41.73;;;19.33;;
3589;SDS011;1809;48.470;9.226;2023-02-11T01:10:09;44.53;;;18.00;;
3589;SDS011;1809;48.470;9.226;2023-02-11T01:12:34;35.40;;;18.23;;
3589;SDS011;1809;48.470;9.226;2023-02-11T01:15:00;38.10;;;18.03;;
3589;SDS011;1809;48.470;9.226;2023-02-11T01:17:25;37.00;;;18.00;;
3589;SDS011;1809;48.470;9.226;2023-02-11T01:19:51;41.00;;;19.53;;
3589;SDS011;1809;48.470;9.226;2023-02-11T01:22:16;40.97;;;21.10;;
3589;SDS011;1809;48.470;9.226;2023-02-11T01:24:41;37.87;;;19.40;;
3589;SDS011;1809;48.470;9.226;2023-02-11T01:27:07;37.10;;;18.53;;
3589;SDS011;1809;48.470;9.226;2023-02-11T01:29:32;38.80;;;18.70;;
3589;SDS011;1809;48.470;9.226;2023-02-11T01:31:58;31.57;;;17.03;;
3589;SDS011;1809;48.470;9.226;2023-02-11T01:34:24;36.47;;;17.43;;
3589;SDS011;1809;48.470;9.226;2023-02-11T01:36:49;38.73;;;17.63;;
3589;SDS011;1809;48.470;9.226;2023-02-11T01:39:15;33.20;;;16.43;;
3589;SDS011;1809;48.470;9.226;2023-02-11T01:41:40;29.60;;;14.60;;
3589;SDS011;1809;48.470;9.226;2023-02-11T01:44:23;28.97;;;16.10;;
3589;SDS011;1809;48.470;9.226;2023-02-11T01:46:52;36.27;;;18.10;;
3589;SDS011;1809;48.470;9.226;2023-02-11T01:49:20;33.50;;;15.80;;
3589;SDS011;1809;48.470;9.226;2023-02-11T01:51:52;36.43;;;15.30;;
3589;SDS011;1809;48.470;9.226;2023-02-11T01:54:25;29.63;;;15.70;;
3589;SDS011;1809;48.470;9.226;2023-02-11T01:57:13;33.03;;;16.00;;
3589;SDS011;1809;48.470;9.226;2023-02-11T01:59:56;30.00;;;15.30;;
3589;SDS011;1809;48.470;9.226;2023-02-11T02:02:38;27.63;;;14.80;;
3589;SDS011;1809;48.470;9.226;2023-02-11T02:08:02;32.07;;;14.47;;
3589;SDS011;1809;48.470;9.226;2023-02-11T02:10:42;26.50;;;14.37;;
3589;SDS011;1809;48.470;9.226;2023-02-11T02:13:10;33.83;;;15.10;;
3589;SDS011;1809;48.470;9.226;2023-02-11T02:15:37;27.00;;;14.80;;
3589;SDS011;1809;48.470;9.226;2023-02-11T02:26:13;41.70;;;19.03;;
3589;SDS011;1809;48.470;9.226;2023-02-11T02:37:43;38.93;;;19.17;;
3589;SDS011;1809;48.470;9.226;2023-02-11T02:40:24;35.77;;;17.87;;
3589;SDS011;1809;48.470;9.226;2023-02-11T02:42:53;36.23;;;17.53;;
3589;SDS011;1809;48.470;9.226;2023-02-11T02:45:20;38.63;;;17.80;;
3589;SDS011;1809;48.470;9.226;2023-02-11T02:47:46;32.97;;;16.97;;
3589;SDS011;1809;48.470;9.226;2023-02-11T02:50:11;30.87;;;16.43;;
3589;SDS011;1809;48.470;9.226;2023-02-11T02:53:05;36.30;;;17.10;;
3589;SDS011;1809;48.470;9.226;2023-02-11T02:55:49;34.47;;;18.00;;
3589;SDS011;1809;48.470;9.226;2023-02-11T02:58:37;32.47;;;16.87;;
3589;SDS011;1809;48.470;9.226;2023-02-11T03:04:05;34.50;;;15.60;;
3589;SDS011;1809;48.470;9.226;2023-02-11T03:09:22;36.83;;;17.70;;
3589;SDS011;1809;48.470;9.226;2023-02-11T03:11:48;36.63;;;17.43;;
3589;SDS011;1809;48.470;9.226;2023-02-11T03:14:14;36.83;;;16.80;;
3589;SDS011;1809;48.470;9.226;2023-02-11T03:16:42;30.80;;;14.97;;
3589;SDS011;1809;48.470;9.226;2023-02-11T03:19:12;30.97;;;13.93;;
3589;SDS011;1809;48.470;9.226;2023-02-11T03:21:42;21.03;;;13.50;;
3589;SDS011;1809;48.470;9.226;2023-02-11T03:24:12;29.10;;;13.90;;
3589;SDS011;1809;48.470;9.226;2023-02-11T03:26:47;28.73;;;14.70;;
3589;SDS011;1809;48.470;9.226;2023-02-11T03:34:52;29.70;;;14.03;;
3589;SDS011;1809;48.470;9.226;2023-02-11T03:37:24;28.37;;;15.17;;
3589;SDS011;1809;48.470;9.226;2023-02-11T03:40:00;27.60;;;13.63;;
3589;SDS011;1809;48.470;9.226;2023-02-11T03:42:39;31.77;;;15.37;;
3589;SDS011;1809;48.470;9.226;2023-02-11T03:45:10;26.33;;;14.00;;
3589;SDS011;1809;48.470;9.226;2023-02-11T03:47:40;27.53;;;14.07;;
3589;SDS011;1809;48.470;9.226;2023-02-11T03:50:09;32.23;;;13.93;;
3589;SDS011;1809;48.470;9.226;2023-02-11T03:52:39;23.77;;;12.77;;
3589;SDS011;1809;48.470;9.226;2023-02-11T03:55:06;29.80;;;15.47;;
3589;SDS011;1809;48.470;9.226;2023-02-11T03:57:35;21.40;;;12.10;;
3589;SDS011;1809;48.470;9.226;2023-02-11T04:00:00;22.90;;;12.83;;
3589;SDS011;1809;48.470;9.226;2023-02-11T04:02:27;29.03;;;14.83;;
3589;SDS011;1809;48.470;9.226;2023-02-11T04:04:56;24.37;;;12.57;;
3589;SDS011;1809;48.470;9.226;2023-02-11T04:07:22;23.70;;;12.67;;
3589;SDS011;1809;48.470;9.226;2023-02-11T04:09:48;29.30;;;13.40;;
3589;SDS011;1809;48.470;9.226;2023-02-11T04:12:13;23.13;;;12.70;;
3589;SDS011;1809;48.470;9.226;2023-02-11T04:14:39;28.90;;;14.47;;
3589;SDS011;1809;48.470;9.226;2023-02-11T04:17:04;25.43;;;13.93;;
3589;SDS011;1809;48.470;9.226;2023-02-11T04:19:30;30.67;;;13.57;;
3589;SDS011;1809;48.470;9.226;2023-02-11T04:21:55;26.63;;;13.10;;
3589;SDS011;1809;48.470;9.226;2023-02-11T04:24:21;29.10;;;14.90;;
3589;SDS011;1809;48.470;9.226;2023-02-11T04:26:46;25.20;;;14.30;;
3589;SDS011;1809;48.470;9.226;2023-02-11T04:29:11;32.47;;;15.00;;
3589;SDS011;1809;48.470;9.226;2023-02-11T04:31:37;24.33;;;14.37;;
3589;SDS011;1809;48.470;9.226;2023-02-11T04:34:02;28.83;;;13.33;;
3589;SDS011;1809;48.470;9.226;2023-02-11T04:36:27;27.63;;;14.67;;
3589;SDS011;1809;48.470;9.226;2023-02-11T04:38:53;24.93;;;13.07;;
3589;SDS011;1809;48.470;9.226;2023-02-11T04:41:18;35.03;;;15.80;;
3589;SDS011;1809;48.470;9.226;2023-02-11T04:43:43;28.80;;;14.10;;
3589;SDS011;1809;48.470;9.226;2023-02-11T04:46:09;26.80;;;15.03;;
3589;SDS011;1809;48.470;9.226;2023-02-11T04:48:34;31.37;;;15.27;;
3589;SDS011;1809;48.470;9.226;2023-02-11T04:51:00;25.90;;;14.23;;
3589;SDS011;1809;48.470;9.226;2023-02-11T04:53:26;26.80;;;13.60;;
3589;SDS011;1809;48.470;9.226;2023-02-11T04:55:51;33.30;;;15.53;;
3589;SDS011;1809;48.470;9.226;2023-02-11T04:58:18;29.20;;;15.03;;
3589;SDS011;1809;48.470;9.226;2023-02-11T05:00:44;28.60;;;14.10;;
3589;SDS011;1809;48.470;9.226;2023-02-11T05:03:10;22.93;;;13.87;;
3589;SDS011;1809;48.470;9.226;2023-02-11T05:05:39;26.53;;;14.60;;
3589;SDS011;1809;48.470;9.226;2023-02-11T05:08:05;30.87;;;13.67;;
3589;SDS011;1809;48.470;9.226;2023-02-11T05:10:31;24.53;;;13.57;;
3589;SDS011;1809;48.470;9.226;2023-02-11T05:12:57;31.03;;;14.57;;
3589;SDS011;1809;48.470;9.226;2023-02-11T05:15:22;27.33;;;14.43;;
3589;SDS011;1809;48.470;9.226;2023-02-11T05:17:48;26.90;;;14.43;;
3589;SDS011;1809;48.470;9.226;2023-02-11T05:20:14;31.03;;;15.00;;
3589;SDS011;1809;48.470;9.226;2023-02-11T05:22:39;30.17;;;13.60;;
3589;SDS011;1809;48.470;9.226;2023-02-11T05:25:05;27.73;;;14.30;;
3589;SDS011;1809;48.470;9.226;2023-02-11T05:27:30;27.40;;;14.47;;
3589;SDS011;1809;48.470;9.226;2023-02-11T05:29:56;30.50;;;16.17;;
3589;SDS011;1809;48.470;9.226;2023-02-11T05:32:21;30.90;;;17.30;;
3589;SDS011;1809;48.470;9.226;2023-02-11T05:34:46;29.77;;;14.03;;
3589;SDS011;1809;48.470;9.226;2023-02-11T05:37:12;28.73;;;15.17;;
3589;SDS011;1809;48.470;9.226;2023-02-11T05:39:37;28.77;;;14.87;;
3589;SDS011;1809;48.470;9.226;2023-02-11T05:42:03;32.20;;;15.47;;
3589;SDS011;1809;48.470;9.226;2023-02-11T05:44:28;29.50;;;15.27;;
3589;SDS011;1809;48.470;9.226;2023-02-11T05:46:53;26.27;;;15.63;;
3589;SDS011;1809;48.470;9.226;2023-02-11T05:49:19;23.00;;;13.53;;
3589;SDS011;1809;48.470;9.226;2023-02-11T05:51:44;31.23;;;14.70;;
3589;SDS011;1809;48.470;9.226;2023-02-11T05:54:10;23.77;;;13.20;;
3589;SDS011;1809;48.470;9.226;2023-02-11T05:56:35;30.50;;;14.90;;
3589;SDS011;1809;48.470;9.226;2023-02-11T05:59:00;28.70;;;15.17;;
3589;SDS011;1809;48.470;9.226;2023-02-11T06:01:26;27.57;;;14.97;;
3589;SDS011;1809;48.470;9.226;2023-02-11T06:03:51;28.97;;;15.93;;
3589;SDS011;1809;48.470;9.226;2023-02-11T06:06:16;29.93;;;14.90;;
3589;SDS011;1809;48.470;9.226;2023-02-11T06:08:42;30.57;;;15.80;;
3589;SDS011;1809;48.470;9.226;2023-02-11T06:11:07;26.07;;;14.77;;
3589;SDS011;1809;48.470;9.226;2023-02-11T06:13:33;26.50;;;14.67;;
3589;SDS011;1809;48.470;9.226;2023-02-11T06:16:00;27.20;;;16.60;;
3589;SDS011;1809;48.470;9.226;2023-02-11T06:18:26;31.50;;;15.53;;
3589;SDS011;1809;48.470;9.226;2023-02-11T06:20:52;34.17;;;18.03;;
3589;SDS011;1809;48.470;9.226;2023-02-11T06:23:17;30.83;;;15.53;;
3589;SDS011;1809;48.470;9.226;2023-02-11T06:25:45;32.07;;;16.97;;
3589;SDS011;1809;48.470;9.226;2023-02-11T06:28:10;27.63;;;14.87;;
3589;SDS011;1809;48.470;9.226;2023-02-11T06:30:36;34.23;;;16.37;;
3589;SDS011;1809;48.470;9.226;2023-02-11T06:33:02;29.60;;;15.60;;
3589;SDS011;1809;48.470;9.226;2023-02-11T06:35:28;36.07;;;17.23;;
3589;SDS011;1809;48.470;9.226;2023-02-11T06:37:53;37.37;;;19.87;;
3589;SDS011;1809;48.470;9.226;2023-02-11T06:40:19;34.80;;;18.93;;
3589;SDS011;1809;48.470;9.226;2023-02-11T06:42:44;34.13;;;18.20;;
3589;SDS011;1809;48.470;9.226;2023-02-11T06:45:10;35.07;;;18.00;;
3589;SDS011;1809;48.470;9.226;2023-02-11T06:47:37;36.13;;;18.13;;
3589;SDS011;1809;48.470;9.226;2023-02-11T06:50:04;36.47;;;17.90;;
3589;SDS011;1809;48.470;9.226;2023-02-11T06:52:31;35.90;;;18.40;;
3589;SDS011;1809;48.470;9.226;2023-02-11T06:54:57;35.33;;;18.23;;
3589;SDS011;1809;48.470;9.226;2023-02-11T06:57:23;37.87;;;19.13;;
3589;SDS011;1809;48.470;9.226;2023-02-11T06:59:48;36.50;;;19.60;;
3589;SDS011;1809;48.470;9.226;2023-02-11T07:02:14;33.97;;;18.90;;
3589;SDS011;1809;48.470;9.226;2023-02-11T07:04:39;43.67;;;23.37;;
3589;SDS011;1809;48.470;9.226;2023-02-11T07:07:04;49.90;;;24.13;;
3589;SDS011;1809;48.470;9.226;2023-02-11T07:09:30;45.63;;;23.03;;
3589;SDS011;1809;48.470;9.226;2023-02-11T07:11:55;52.83;;;23.20;;
3589;SDS011;1809;48.470;9.226;2023-02-11T07:14:21;47.90;;;25.30;;
3589;SDS011;1809;48.470;9.226;2023-02-11T07:16:46;43.87;;;22.40;;
3589;SDS011;1809;48.470;9.226;2023-02-11T07:19:11;46.73;;;22.17;;
3589;SDS011;1809;48.470;9.226;2023-02-11T07:21:36;44.47;;;18.83;;
3589;SDS011;1809;48.470;9.226;2023-02-11T07:24:05;35.70;;;18.03;;
3589;SDS011;1809;48.470;9.226;2023-02-11T07:26:31;34.70;;;18.60;;
3589;SDS011;1809;48.470;9.226;2023-02-11T07:28:57;38.40;;;19.97;;
3589;SDS011;1809;48.470;9.226;2023-02-11T07:31:23;31.40;;;17.73;;
3589;SDS011;1809;48.470;9.226;2023-02-11T07:33:51;29.80;;;17.57;;
3589;SDS011;1809;48.470;9.226;2023-02-11T07:36:19;30.10;;;17.10;;
3589;SDS011;1809;48.470;9.226;2023-02-11T07:38:45;33.37;;;17.63;;
3589;SDS011;1809;48.470;9.226;2023-02-11T07:41:12;32.50;;;17.40;;
3589;SDS011;1809;48.470;9.226;2023-02-11T07:43:39;35.40;;;19.63;;
3589;SDS011;1809;48.470;9.226;2023-02-11T07:46:05;37.77;;;22.50;;
3589;SDS011;1809;48.470;9.226;2023-02-11T07:48:32;37.10;;;20.13;;
3589;SDS011;1809;48.470;9.226;2023-02-11T07:51:17;38.57;;;19.63;;
3589;SDS011;1809;48.470;9.226;2023-02-11T07:53:45;36.53;;;20.73;;
3589;SDS011;1809;48.470;9.226;2023-02-11T07:56:12;43.63;;;22.83;;
3589;SDS011;1809;48.470;9.226;2023-02-11T07:58:39;36.80;;;20.83;;
3589;SDS011;1809;48.470;9.226;2023-02-11T08:01:09;34.63;;;20.00;;
3589;SDS011;1809;48.470;9.226;2023-02-11T08:03:36;41.47;;;22.13;;
3589;SDS011;1809;48.470;9.226;2023-02-11T08:06:07;39.00;;;21.60;;
3589;SDS011;1809;48.470;9.226;2023-02-11T08:08:37;43.00;;;23.37;;
3589;SDS011;1809;48.470;9.226;2023-02-11T08:11:06;41.00;;;22.33;;
3589;SDS011;1809;48.470;9.226;2023-02-11T08:13:34;47.60;;;21.50;;
3589;SDS011;1809;48.470;9.226;2023-02-11T08:15:59;39.73;;;21.57;;
3589;SDS011;1809;48.470;9.226;2023-02-11T08:18:25;42.27;;;22.30;;
3589;SDS011;1809;48.470;9.226;2023-02-11T08:20:50;34.40;;;20.10;;
3589;SDS011;1809;48.470;9.226;2023-02-11T08:23:15;36.33;;;20.40;;
3589;SDS011;1809;48.470;9.226;2023-02-11T08:25:41;40.30;;;21.73;;
3589;SDS011;1809;48.470;9.226;2023-02-11T08:28:09;37.20;;;20.67;;
3589;SDS011;1809;48.470;9.226;2023-02-11T08:30:34;45.80;;;21.63;;
3589;SDS011;1809;48.470;9.226;2023-02-11T08:33:00;43.20;;;21.97;;
3589;SDS011;1809;48.470;9.226;2023-02-11T08:35:25;48.30;;;24.33;;
3589;SDS011;1809;48.470;9.226;2023-02-11T08:37:51;41.60;;;23.13;;
3589;SDS011;1809;48.470;9.226;2023-02-11T08:40:17;39.83;;;21.17;;
3589;SDS011;1809;48.470;9.226;2023-02-11T08:42:42;41.47;;;23.30;;
3589;SDS011;1809;48.470;9.226;2023-02-11T08:45:08;39.40;;;21.87;;
3589;SDS011;1809;48.470;9.226;2023-02-11T08:47:34;40.63;;;22.50;;
3589;SDS011;1809;48.470;9.226;2023-02-11T08:50:00;45.87;;;21.67;;
3589;SDS011;1809;48.470;9.226;2023-02-11T08:52:25;42.97;;;21.30;;
3589;SDS011;1809;48.470;9.226;2023-02-11T08:54:51;39.87;;;22.73;;
3589;SDS011;1809;48.470;9.226;2023-02-11T08:57:16;36.03;;;19.80;;
3589;SDS011;1809;48.470;9.226;2023-02-11T08:59:41;36.40;;;19.37;;
3589;SDS011;1809;48.470;9.226;2023-02-11T09:02:09;35.03;;;19.57;;
3589;SDS011;1809;48.470;9.226;2023-02-11T09:04:36;38.00;;;20.93;;
3589;SDS011;1809;48.470;9.226;2023-02-11T09:07:01;36.70;;;20.90;;
3589;SDS011;1809;48.470;9.226;2023-02-11T09:09:27;37.83;;;20.27;;
3589;SDS011;1809;48.470;9.226;2023-02-11T09:11:52;34.47;;;20.33;;
3589;SDS011;1809;48.470;9.226;2023-02-11T09:14:21;32.27;;;19.67;;
3589;SDS011;1809;48.470;9.226;2023-02-11T09:16:47;48.47;;;21.50;;
3589;SDS011;1809;48.470;9.226;2023-02-11T09:19:13;38.10;;;22.40;;
3589;SDS011;1809;48.470;9.226;2023-02-11T09:21:38;38.10;;;20.73;;
3589;SDS011;1809;48.470;9.226;2023-02-11T09:24:03;40.00;;;23.13;;
3589;SDS011;1809;48.470;9.226;2023-02-11T09:26:31;36.47;;;21.30;;
3589;SDS011;1809;48.470;9.226;2023-02-11T09:28:58;35.87;;;20.90;;
3589;SDS011;1809;48.470;9.226;2023-02-11T09:31:25;39.47;;;20.90;;
3589;SDS011;1809;48.470;9.226;2023-02-11T09:33:53;31.37;;;18.40;;
3589;SDS011;1809;48.470;9.226;2023-02-11T09:36:21;33.40;;;18.77;;
3589;SDS011;1809;48.470;9.226;2023-02-11T09:38:51;25.80;;;16.07;;
3589;SDS011;1809;48.470;9.226;2023-02-11T09:41:24;20.67;;;12.37;;
3589;SDS011;1809;48.470;9.226;2023-02-11T09:43:54;22.03;;;10.43;;
3589;SDS011;1809;48.470;9.226;2023-02-11T09:46:22;17.23;;;10.87;;
3589;SDS011;1809;48.470;9.226;2023-02-11T09:48:50;18.87;;;10.87;;
3589;SDS011;1809;48.470;9.226;2023-02-11T09:51:40;16.90;;;10.97;;
3589;SDS011;1809;48.470;9.226;2023-02-11T09:54:16;30.33;;;16.80;;
3589;SDS011;1809;48.470;9.226;2023-02-11T09:56:47;33.10;;;19.07;;
3589;SDS011;1809;48.470;9.226;2023-02-11T09:59:13;25.63;;;16.93;;
3589;SDS011;1809;48.470;9.226;2023-02-11T10:01:47;20.50;;;12.40;;
3589;SDS011;1809;48.470;9.226;2023-02-11T10:07:16;17.27;;;12.90;;
3589;SDS011;1809;48.470;9.226;2023-02-11T10:09:53;17.13;;;11.50;;
3589;SDS011;1809;48.470;9.226;2023-02-11T10:12:42;16.20;;;11.50;;
3589;SDS011;1809;48.470;9.226;2023-02-11T10:23:58;8.33;;;6.27;;
3589;SDS011;1809;48.470;9.226;2023-02-11T10:26:28;11.27;;;7.40;;
3589;SDS011;1809;48.470;9.226;2023-02-11T10:28:55;9.53;;;8.20;;
3589;SDS011;1809;48.470;9.226;2023-02-11T10:31:35;25.47;;;11.60;;
3589;SDS011;1809;48.470;9.226;2023-02-11T10:34:04;55.10;;;29.50;;
3589;SDS011;1809;48.470;9.226;2023-02-11T10:36:34;21.20;;;13.50;;
3589;SDS011;1809;48.470;9.226;2023-02-11T10:39:08;19.93;;;13.20;;
3589;SDS011;1809;48.470;9.226;2023-02-11T10:41:38;24.53;;;14.07;;
3589;SDS011;1809;48.470;9.226;2023-02-11T10:44:10;24.00;;;14.97;;
3589;SDS011;1809;48.470;9.226;2023-02-11T10:46:45;21.87;;;14.47;;
3589;SDS011;1809;48.470;9.226;2023-02-11T10:49:11;32.20;;;15.93;;
3589;SDS011;1809;48.470;9.226;2023-02-11T10:57:29;26.37;;;15.90;;
3589;SDS011;1809;48.470;9.226;2023-02-11T11:00:18;32.10;;;17.60;;
3589;SDS011;1809;48.470;9.226;2023-02-11T11:02:59;28.00;;;15.90;;
3589;SDS011;1809;48.470;9.226;2023-02-11T11:05:36;31.13;;;17.33;;
3589;SDS011;1809;48.470;9.226;2023-02-11T11:08:11;29.47;;;17.63;;
3589;SDS011;1809;48.470;9.226;2023-02-11T11:10:41;32.13;;;17.23;;
3589;SDS011;1809;48.470;9.226;2023-02-11T11:13:31;26.70;;;18.63;;
3589;SDS011;1809;48.470;9.226;2023-02-11T11:18:42;37.20;;;18.90;;
3589;SDS011;1809;48.470;9.226;2023-02-11T11:21:20;29.20;;;16.10;;
3589;SDS011;1809;48.470;9.226;2023-02-11T11:23:56;27.73;;;15.87;;
3589;SDS011;1809;48.470;9.226;2023-02-11T11:26:24;27.97;;;15.30;;
3589;SDS011;1809;48.470;9.226;2023-02-11T11:29:15;46.70;;;23.00;;
3589;SDS011;1809;48.470;9.226;2023-02-11T11:31:50;34.53;;;17.90;;
3589;SDS011;1809;48.470;9.226;2023-02-11T11:34:42;29.83;;;17.80;;
3589;SDS011;1809;48.470;9.226;2023-02-11T11:37:12;30.83;;;16.80;;
3589;SDS011;1809;48.470;9.226;2023-02-11T11:39:54;38.30;;;18.63;;
3589;SDS011;1809;48.470;9.226;2023-02-11T11:42:24;35.57;;;19.10;;
3589;SDS011;1809;48.470;9.226;2023-02-11T11:45:01;31.20;;;17.20;;
3589;SDS011;1809;48.470;9.226;2023-02-11T11:50:39;36.17;;;20.87;;
3589;SDS011;1809;48.470;9.226;2023-02-11T11:55:47;33.07;;;16.40;;
3589;SDS011;1809;48.470;9.226;2023-02-11T11:58:17;33.27;;;15.70;;
3589;SDS011;1809;48.470;9.226;2023-02-11T12:03:45;28.00;;;16.50;;
3589;SDS011;1809;48.470;9.226;2023-02-11T12:16:05;29.37;;;17.70;;
3589;SDS011;1809;48.470;9.226;2023-02-11T12:18:50;28.67;;;15.90;;
3589;SDS011;1809;48.470;9.226;2023-02-11T12:27:01;25.30;;;14.57;;
3589;SDS011;1809;48.470;9.226;2023-02-11T12:32:16;28.70;;;16.60;;
3589;SDS011;1809;48.470;9.226;2023-02-11T12:34:49;27.17;;;13.63;;
3589;SDS011;1809;48.470;9.226;2023-02-11T12:40:24;26.00;;;14.17;;
3589;SDS011;1809;48.470;9.226;2023-02-11T12:43:19;31.30;;;16.20;;
3589;SDS011;1809;48.470;9.226;2023-02-11T12:48:43;31.40;;;17.47;;
3589;SDS011;1809;48.470;9.226;2023-02-11T12:57:46;28.53;;;16.47;;
3589;SDS011;1809;48.470;9.226;2023-02-11T13:00:15;28.57;;;17.70;;
3589;SDS011;1809;48.470;9.226;2023-02-11T13:05:39;22.93;;;14.23;;
3589;SDS011;1809;48.470;9.226;2023-02-11T13:08:11;23.43;;;14.83;;
3589;SDS011;1809;48.470;9.226;2023-02-11T13:10:41;24.57;;;15.70;;
3589;SDS011;1809;48.470;9.226;2023-02-11T13:13:13;27.20;;;16.80;;
3589;SDS011;1809;48.470;9.226;2023-02-11T13:15:49;22.80;;;14.63;;
3589;SDS011;1809;48.470;9.226;2023-02-11T13:23:48;25.73;;;15.13;;
3589;SDS011;1809;48.470;9.226;2023-02-11T13:37:37;21.50;;;12.13;;
3589;SDS011;1809;48.470;9.226;2023-02-11T13:40:04;19.20;;;14.27;;
3589;SDS011;1809;48.470;9.226;2023-02-11T13:42:46;26.70;;;14.20;;
3589;SDS011;1809;48.470;9.226;2023-02-11T13:45:20;19.00;;;12.57;;
3589;SDS011;1809;48.470;9.226;2023-02-11T13:48:35;23.37;;;12.47;;
3589;SDS011;1809;48.470;9.226;2023-02-11T13:51:02;18.57;;;10.90;;
3589;SDS011;1809;48.470;9.226;2023-02-11T13:53:41;26.03;;;11.00;;
3589;SDS011;1809;48.470;9.226;2023-02-11T13:58:59;17.83;;;11.50;;
3589;SDS011;1809;48.470;9.226;2023-02-11T14:02:00;16.90;;;11.90;;
3589;SDS011;1809;48.470;9.226;2023-02-11T14:10:55;25.83;;;11.77;;
3589;SDS011;1809;48.470;9.226;2023-02-11T14:15:48;12.83;;;9.20;;
3589;SDS011;1809;48.470;9.226;2023-02-11T14:18:36;15.73;;;9.10;;
3589;SDS011;1809;48.470;9.226;2023-02-11T14:23:48;10.50;;;6.83;;
3589;SDS011;1809;48.470;9.226;2023-02-11T14:28:53;12.10;;;7.47;;
3589;SDS011;1809;48.470;9.226;2023-02-11T14:31:24;12.87;;;8.13;;
3589;SDS011;1809;48.470;9.226;2023-02-11T14:34:23;11.10;;;6.67;;
3589;SDS011;1809;48.470;9.226;2023-02-11T14:39:45;10.93;;;7.40;;
3589;SDS011;1809;48.470;9.226;2023-02-11T14:42:17;14.33;;;6.60;;
3589;SDS011;1809;48.470;9.226;2023-02-11T14:44:46;12.77;;;8.23;;
3589;SDS011;1809;48.470;9.226;2023-02-11T14:47:16;15.00;;;7.97;;
3589;SDS011;1809;48.470;9.226;2023-02-11T14:49:44;11.80;;;7.07;;
3589;SDS011;1809;48.470;9.226;2023-02-11T14:52:26;12.20;;;7.20;;
3589;SDS011;1809;48.470;9.226;2023-02-11T14:55:17;13.23;;;7.50;;
3589;SDS011;1809;48.470;9.226;2023-02-11T14:57:45;15.10;;;10.17;;
3589;SDS011;1809;48.470;9.226;2023-02-11T15:00:16;13.10;;;9.23;;
3589;SDS011;1809;48.470;9.226;2023-02-11T15:02:47;21.53;;;9.93;;
3589;SDS011;1809;48.470;9.226;2023-02-11T15:05:16;11.53;;;8.77;;
3589;SDS011;1809;48.470;9.226;2023-02-11T15:07:45;15.00;;;8.70;;
3589;SDS011;1809;48.470;9.226;2023-02-11T15:10:46;11.70;;;8.87;;
3589;SDS011;1809;48.470;9.226;2023-02-11T15:13:08;12.40;;;8.27;;
3589;SDS011;1809;48.470;9.226;2023-02-11T15:15:42;11.30;;;7.80;;
3589;SDS011;1809;48.470;9.226;2023-02-11T15:18:12;9.10;;;7.30;;
3589;SDS011;1809;48.470;9.226;2023-02-11T15:20:45;15.33;;;9.87;;
3589;SDS011;1809;48.470;9.226;2023-02-11T15:23:13;18.87;;;11.57;;
3589;SDS011;1809;48.470;9.226;2023-02-11T15:25:47;20.37;;;12.70;;
3589;SDS011;1809;48.470;9.226;2023-02-11T15:28:23;15.10;;;11.13;;
3589;SDS011;1809;48.470;9.226;2023-02-11T15:33:41;34.90;;;18.73;;
3589;SDS011;1809;48.470;9.226;2023-02-11T15:36:08;28.40;;;16.50;;
3589;SDS011;1809;48.470;9.226;2023-02-11T15:38:36;20.83;;;13.10;;
3589;SDS011;1809;48.470;9.226;2023-02-11T15:41:02;22.77;;;12.40;;
3589;SDS011;1809;48.470;9.226;2023-02-11T15:43:44;14.87;;;10.20;;
3589;SDS011;1809;48.470;9.226;2023-02-11T15:46:18;21.00;;;13.27;;
3589;SDS011;1809;48.470;9.226;2023-02-11T15:53:49;15.27;;;11.67;;
3589;SDS011;1809;48.470;9.226;2023-02-11T15:56:39;22.10;;;12.40;;
3589;SDS011;1809;48.470;9.226;2023-02-11T16:02:15;24.53;;;13.50;;
3589;SDS011;1809;48.470;9.226;2023-02-11T16:04:50;22.43;;;14.80;;
3589;SDS011;1809;48.470;9.226;2023-02-11T16:18:02;25.17;;;15.37;;
3589;SDS011;1809;48.470;9.226;2023-02-11T16:20:37;29.40;;;17.50;;
3589;SDS011;1809;48.470;9.226;2023-02-11T16:23:03;28.37;;;16.23;;
3589;SDS011;1809;48.470;9.226;2023-02-11T16:25:33;27.63;;;16.53;;
3589;SDS011;1809;48.470;9.226;2023-02-11T16:27:59;27.80;;;15.30;;
3589;SDS011;1809;48.470;9.226;2023-02-11T16:30:26;28.00;;;16.70;;
3589;SDS011;1809;48.470;9.226;2023-02-11T16:32:58;54.30;;;18.27;;
3589;SDS011;1809;48.470;9.226;2023-02-11T16:35:24;37.40;;;17.77;;
3589;SDS011;1809;48.470;9.226;2023-02-11T16:37:49;31.23;;;16.73;;
3589;SDS011;1809;48.470;9.226;2023-02-11T16:40:15;34.23;;;19.07;;
3589;SDS011;1809;48.470;9.226;2023-02-11T16:42:40;38.20;;;21.50;;
3589;SDS011;1809;48.470;9.226;2023-02-11T16:45:06;46.90;;;19.50;;
3589;SDS011;1809;48.470;9.226;2023-02-11T16:47:31;38.27;;;18.70;;
3589;SDS011;1809;48.470;9.226;2023-02-11T16:49:58;47.20;;;19.70;;
3589;SDS011;1809;48.470;9.226;2023-02-11T16:52:26;39.87;;;18.67;;
3589;SDS011;1809;48.470;9.226;2023-02-11T16:54:52;33.63;;;18.80;;
3589;SDS011;1809;48.470;9.226;2023-02-11T16:57:21;60.20;;;23.80;;
3589;SDS011;1809;48.470;9.226;2023-02-11T16:59:49;89.80;;;35.40;;
3589;SDS011;1809;48.470;9.226;2023-02-11T17:02:22;71.27;;;33.23;;
3589;SDS011;1809;48.470;9.226;2023-02-11T17:04:51;55.73;;;29.43;;
3589;SDS011;1809;48.470;9.226;2023-02-11T17:07:18;56.80;;;26.80;;
3589;SDS011;1809;48.470;9.226;2023-02-11T17:09:44;46.80;;;24.30;;
3589;SDS011;1809;48.470;9.226;2023-02-11T17:12:09;53.37;;;27.80;;
3589;SDS011;1809;48.470;9.226;2023-02-11T17:14:35;48.47;;;25.50;;
3589;SDS011;1809;48.470;9.226;2023-02-11T17:17:00;48.87;;;23.87;;
3589;SDS011;1809;48.470;9.226;2023-02-11T17:19:26;43.00;;;22.77;;
3589;SDS011;1809;48.470;9.226;2023-02-11T17:21:51;42.70;;;21.60;;
3589;SDS011;1809;48.470;9.226;2023-02-11T17:24:18;41.20;;;21.40;;
3589;SDS011;1809;48.470;9.226;2023-02-11T17:26:44;60.13;;;22.27;;
3589;SDS011;1809;48.470;9.226;2023-02-11T17:29:11;34.10;;;19.27;;
3589;SDS011;1809;48.470;9.226;2023-02-11T17:31:40;36.03;;;19.07;;
3589;SDS011;1809;48.470;9.226;2023-02-11T17:34:05;35.03;;;18.50;;